sensor_id;sensor_type;location;lat;lon;timestamp;temperature;humidity
4910;DHT22;2470;49.868;8.660;2023-04-01T00:02:06;11.20;99.90
4910;DHT22;2470;49.868;8.660;2023-04-01T00:04:31;11.20;99.90
4910;DHT22;2470;49.868;8.660;2023-04-01T00:06:57;11.20;99.90
4910;DHT22;2470;49.868;8.660;2023-04-01T00:09:23;11.20;99.90
4910;DHT22;2470;49.868;8.660;2023-04-01T00:11:48;11.20;99.90
4910;DHT22;2470;49.868;8.660;2023-04-01T00:14:14;11.20;99.90
4910;DHT22;2470;49.868;8.660;2023-04-01T00:16:39;11.20;99.90
4910;DHT22;2470;49.868;8.660;2023-04-01T00:19:05;11.20;99.90
4910;DHT22;2470;49.868;8.660;2023-04-01T00:21:31;11.20;99.90
4910;DHT22;2470;49.868;8.660;2023-04-01T00:23:56;11.20;99.90
4910;DHT22;2470;49.868;8.660;2023-04-01T00:26:23;11.20;99.90
4910;DHT22;2470;49.868;8.660;2023-04-01T00:28:48;11.10;99.90
4910;DHT22;2470;49.868;8.660;2023-04-01T00:31:14;11.20;99.90
4910;DHT22;2470;49.868;8.660;2023-04-01T00:33:40;11.10;99.90
4910;DHT22;2470;49.868;8.660;2023-04-01T00:36:18;11.20;99.90
4910;DHT22;2470;49.868;8.660;2023-04-01T00:38:44;11.20;99.90
4910;DHT22;2470;49.868;8.660;2023-04-01T00:41:11;11.20;99.90
4910;DHT22;2470;49.868;8.660;2023-04-01T00:43:40;11.10;99.90
4910;DHT22;2470;49.868;8.660;2023-04-01T00:46:06;11.10;99.90
4910;DHT22;2470;49.868;8.660;2023-04-01T00:48:34;11.10;99.90
4910;DHT22;2470;49.868;8.660;2023-04-01T00:51:09;11.10;99.90
4910;DHT22;2470;49.868;8.660;2023-04-01T00:53:39;11.10;99.90
4910;DHT22;2470;49.868;8.660;2023-04-01T00:56:12;11.10;99.90
4910;DHT22;2470;49.868;8.660;2023-04-01T00:58:43;11.10;99.90
4910;DHT22;2470;49.868;8.660;2023-04-01T01:01:09;11.10;99.90
4910;DHT22;2470;49.868;8.660;2023-04-01T01:03:35;11.10;99.90
4910;DHT22;2470;49.868;8.660;2023-04-01T01:06:24;11.10;99.90
4910;DHT22;2470;49.868;8.660;2023-04-01T01:11:34;11.10;99.90
4910;DHT22;2470;49.868;8.660;2023-04-01T01:14:09;11.10;99.90
4910;DHT22;2470;49.868;8.660;2023-04-01T01:16:51;11.10;99.90
4910;DHT22;2470;49.868;8.660;2023-04-01T01:19:33;11.10;99.90
4910;DHT22;2470;49.868;8.660;2023-04-01T01:22:32;11.20;99.90
4910;DHT22;2470;49.868;8.660;2023-04-01T01:25:09;11.20;99.90
4910;DHT22;2470;49.868;8.660;2023-04-01T01:27:41;11.20;99.90
4910;DHT22;2470;49.868;8.660;2023-04-01T01:30:25;11.20;99.90
4910;DHT22;2470;49.868;8.660;2023-04-01T01:33:13;11.20;99.90
4910;DHT22;2470;49.868;8.660;2023-04-01T01:35:50;11.20;99.90
4910;DHT22;2470;49.868;8.660;2023-04-01T01:38:20;11.20;99.90
4910;DHT22;2470;49.868;8.660;2023-04-01T01:40:49;11.20;99.90
4910;DHT22;2470;49.868;8.660;2023-04-01T01:43:22;11.20;99.90
4910;DHT22;2470;49.868;8.660;2023-04-01T01:45:52;11.20;99.90
4910;DHT22;2470;49.868;8.660;2023-04-01T01:48:20;11.20;99.90
4910;DHT22;2470;49.868;8.660;2023-04-01T01:50:47;11.20;99.90
4910;DHT22;2470;49.868;8.660;2023-04-01T01:53:13;11.20;99.90
4910;DHT22;2470;49.868;8.660;2023-04-01T01:55:42;11.20;99.90
4910;DHT22;2470;49.868;8.660;2023-04-01T01:58:53;11.20;99.90
4910;DHT22;2470;49.868;8.660;2023-04-01T02:00:57;11.20;99.90
4910;DHT22;2470;49.868;8.660;2023-04-01T02:03:25;11.20;99.90
4910;DHT22;2470;49.868;8.660;2023-04-01T02:05:54;11.30;99.90
4910;DHT22;2470;49.868;8.660;2023-04-01T02:08:26;11.20;99.90
4910;DHT22;2470;49.868;8.660;2023-04-01T02:11:02;11.20;99.90
4910;DHT22;2470;49.868;8.660;2023-04-01T02:13:34;11.20;99.90
4910;DHT22;2470;49.868;8.660;2023-04-01T02:16:05;11.20;99.90
4910;DHT22;2470;49.868;8.660;2023-04-01T02:18:34;11.20;99.90
4910;DHT22;2470;49.868;8.660;2023-04-01T02:21:02;11.20;99.90
4910;DHT22;2470;49.868;8.660;2023-04-01T02:23:31;11.10;99.90
4910;DHT22;2470;49.868;8.660;2023-04-01T02:25:58;11.10;99.90
4910;DHT22;2470;49.868;8.660;2023-04-01T02:28:25;11.10;99.90
4910;DHT22;2470;49.868;8.660;2023-04-01T02:30:52;11.10;99.90
4910;DHT22;2470;49.868;8.660;2023-04-01T02:33:18;11.10;99.90
4910;DHT22;2470;49.868;8.660;2023-04-01T02:35:44;11.10;99.90
4910;DHT22;2470;49.868;8.660;2023-04-01T02:38:10;11.00;99.90
4910;DHT22;2470;49.868;8.660;2023-04-01T02:40:43;11.00;99.90
4910;DHT22;2470;49.868;8.660;2023-04-01T02:43:10;11.00;99.90
4910;DHT22;2470;49.868;8.660;2023-04-01T02:45:36;11.00;99.90
4910;DHT22;2470;49.868;8.660;2023-04-01T02:48:02;11.00;99.90
4910;DHT22;2470;49.868;8.660;2023-04-01T02:50:27;11.00;99.90
4910;DHT22;2470;49.868;8.660;2023-04-01T02:52:53;10.90;99.90
4910;DHT22;2470;49.868;8.660;2023-04-01T02:55:18;10.90;99.90
4910;DHT22;2470;49.868;8.660;2023-04-01T02:57:44;10.90;99.90
4910;DHT22;2470;49.868;8.660;2023-04-01T03:00:10;10.90;99.90
4910;DHT22;2470;49.868;8.660;2023-04-01T03:02:37;10.90;99.90
4910;DHT22;2470;49.868;8.660;2023-04-01T03:05:04;10.90;99.90
4910;DHT22;2470;49.868;8.660;2023-04-01T03:07:31;10.90;99.90
4910;DHT22;2470;49.868;8.660;2023-04-01T03:09:56;10.90;99.90
4910;DHT22;2470;49.868;8.660;2023-04-01T03:12:22;10.80;99.90
4910;DHT22;2470;49.868;8.660;2023-04-01T03:14:47;10.80;99.90
4910;DHT22;2470;49.868;8.660;2023-04-01T03:17:13;10.90;99.90
4910;DHT22;2470;49.868;8.660;2023-04-01T03:19:38;10.80;99.90
4910;DHT22;2470;49.868;8.660;2023-04-01T03:22:04;10.80;99.90
4910;DHT22;2470;49.868;8.660;2023-04-01T03:24:29;10.80;99.90
4910;DHT22;2470;49.868;8.660;2023-04-01T03:26:55;10.80;99.90
4910;DHT22;2470;49.868;8.660;2023-04-01T03:29:20;10.80;99.90
4910;DHT22;2470;49.868;8.660;2023-04-01T03:31:45;10.80;99.90
4910;DHT22;2470;49.868;8.660;2023-04-01T03:34:11;10.80;99.90
4910;DHT22;2470;49.868;8.660;2023-04-01T03:36:37;10.80;99.90
4910;DHT22;2470;49.868;8.660;2023-04-01T03:39:02;10.80;99.90
4910;DHT22;2470;49.868;8.660;2023-04-01T03:41:29;10.80;99.90
4910;DHT22;2470;49.868;8.660;2023-04-01T03:43:55;10.80;99.90
4910;DHT22;2470;49.868;8.660;2023-04-01T03:46:21;10.80;99.90
4910;DHT22;2470;49.868;8.660;2023-04-01T03:48:47;10.70;99.90
4910;DHT22;2470;49.868;8.660;2023-04-01T03:51:12;10.70;99.90
4910;DHT22;2470;49.868;8.660;2023-04-01T03:53:38;10.70;99.90
4910;DHT22;2470;49.868;8.660;2023-04-01T03:56:05;10.70;99.90
4910;DHT22;2470;49.868;8.660;2023-04-01T03:58:31;10.70;99.90
4910;DHT22;2470;49.868;8.660;2023-04-01T04:00:56;10.70;99.90
4910;DHT22;2470;49.868;8.660;2023-04-01T04:03:22;10.70;99.90
4910;DHT22;2470;49.868;8.660;2023-04-01T04:05:48;10.70;99.90
4910;DHT22;2470;49.868;8.660;2023-04-01T04:08:14;10.70;99.90
4910;DHT22;2470;49.868;8.660;2023-04-01T04:10:40;10.70;99.90
4910;DHT22;2470;49.868;8.660;2023-04-01T04:13:06;10.70;99.90
4910;DHT22;2470;49.868;8.660;2023-04-01T04:15:32;10.80;99.90
4910;DHT22;2470;49.868;8.660;2023-04-01T04:17:57;10.70;99.90
4910;DHT22;2470;49.868;8.660;2023-04-01T04:20:23;10.70;99.90
4910;DHT22;2470;49.868;8.660;2023-04-01T04:22:48;10.70;99.90
4910;DHT22;2470;49.868;8.660;2023-04-01T04:25:14;10.70;99.90
4910;DHT22;2470;49.868;8.660;2023-04-01T04:27:39;10.70;99.90
4910;DHT22;2470;49.868;8.660;2023-04-01T04:30:06;10.70;99.90
4910;DHT22;2470;49.868;8.660;2023-04-01T04:32:32;10.80;99.90
4910;DHT22;2470;49.868;8.660;2023-04-01T04:34:57;10.80;99.90
4910;DHT22;2470;49.868;8.660;2023-04-01T04:37:23;10.80;99.90
4910;DHT22;2470;49.868;8.660;2023-04-01T04:39:51;10.80;99.90
4910;DHT22;2470;49.868;8.660;2023-04-01T04:42:16;10.80;99.90
4910;DHT22;2470;49.868;8.660;2023-04-01T04:44:42;10.90;99.90
4910;DHT22;2470;49.868;8.660;2023-04-01T04:47:07;10.90;99.90
4910;DHT22;2470;49.868;8.660;2023-04-01T04:49:33;10.90;99.90
4910;DHT22;2470;49.868;8.660;2023-04-01T04:51:58;10.90;99.90
4910;DHT22;2470;49.868;8.660;2023-04-01T04:54:24;10.90;99.90
4910;DHT22;2470;49.868;8.660;2023-04-01T04:56:52;10.90;99.90
4910;DHT22;2470;49.868;8.660;2023-04-01T04:59:17;10.90;99.90
4910;DHT22;2470;49.868;8.660;2023-04-01T05:01:43;10.90;99.90
4910;DHT22;2470;49.868;8.660;2023-04-01T05:04:09;10.90;99.90
4910;DHT22;2470;49.868;8.660;2023-04-01T05:06:34;10.80;99.90
4910;DHT22;2470;49.868;8.660;2023-04-01T05:09:00;10.90;99.90
4910;DHT22;2470;49.868;8.660;2023-04-01T05:11:25;10.80;99.90
4910;DHT22;2470;49.868;8.660;2023-04-01T05:13:51;10.90;99.90
4910;DHT22;2470;49.868;8.660;2023-04-01T05:16:19;10.90;99.90
4910;DHT22;2470;49.868;8.660;2023-04-01T05:18:46;10.90;99.90
4910;DHT22;2470;49.868;8.660;2023-04-01T05:21:13;10.90;99.90
4910;DHT22;2470;49.868;8.660;2023-04-01T05:23:39;10.90;99.90
4910;DHT22;2470;49.868;8.660;2023-04-01T05:26:06;10.90;99.90
4910;DHT22;2470;49.868;8.660;2023-04-01T05:28:32;10.90;99.90
4910;DHT22;2470;49.868;8.660;2023-04-01T05:31:02;10.90;99.90
4910;DHT22;2470;49.868;8.660;2023-04-01T05:33:29;10.90;99.90
4910;DHT22;2470;49.868;8.660;2023-04-01T05:35:55;10.90;99.90
4910;DHT22;2470;49.868;8.660;2023-04-01T05:38:21;10.90;99.90
4910;DHT22;2470;49.868;8.660;2023-04-01T05:40:46;10.80;99.90
4910;DHT22;2470;49.868;8.660;2023-04-01T05:43:12;10.80;99.90
4910;DHT22;2470;49.868;8.660;2023-04-01T05:45:37;10.80;99.90
4910;DHT22;2470;49.868;8.660;2023-04-01T05:48:03;10.80;99.90
4910;DHT22;2470;49.868;8.660;2023-04-01T05:50:29;10.80;99.90
4910;DHT22;2470;49.868;8.660;2023-04-01T05:52:55;10.80;99.90
4910;DHT22;2470;49.868;8.660;2023-04-01T05:55:21;10.80;99.90
4910;DHT22;2470;49.868;8.660;2023-04-01T05:57:46;10.80;99.90
4910;DHT22;2470;49.868;8.660;2023-04-01T06:00:14;10.80;99.90
4910;DHT22;2470;49.868;8.660;2023-04-01T06:02:40;10.80;99.90
4910;DHT22;2470;49.868;8.660;2023-04-01T06:07:45;10.80;99.90
4910;DHT22;2470;49.868;8.660;2023-04-01T06:10:18;10.80;99.90
4910;DHT22;2470;49.868;8.660;2023-04-01T06:16:03;10.90;99.90
4910;DHT22;2470;49.868;8.660;2023-04-01T06:18:50;10.90;99.90
4910;DHT22;2470;49.868;8.660;2023-04-01T06:21:37;10.90;99.90
4910;DHT22;2470;49.868;8.660;2023-04-01T06:24:12;10.90;99.90
4910;DHT22;2470;49.868;8.660;2023-04-01T06:29:47;10.80;99.90
4910;DHT22;2470;49.868;8.660;2023-04-01T06:32:30;10.80;99.90
4910;DHT22;2470;49.868;8.660;2023-04-01T06:40:34;10.90;99.90
4910;DHT22;2470;49.868;8.660;2023-04-01T06:43:17;10.90;99.90
4910;DHT22;2470;49.868;8.660;2023-04-01T06:46:05;10.90;99.90
4910;DHT22;2470;49.868;8.660;2023-04-01T06:49:19;11.00;99.90
4910;DHT22;2470;49.868;8.660;2023-04-01T06:54:37;11.00;99.90
4910;DHT22;2470;49.868;8.660;2023-04-01T06:57:52;10.90;99.90
4910;DHT22;2470;49.868;8.660;2023-04-01T07:00:00;10.90;99.90
4910;DHT22;2470;49.868;8.660;2023-04-01T07:02:37;10.90;99.90
4910;DHT22;2470;49.868;8.660;2023-04-01T07:05:05;10.90;99.90
4910;DHT22;2470;49.868;8.660;2023-04-01T07:07:39;10.90;99.90
4910;DHT22;2470;49.868;8.660;2023-04-01T07:10:15;10.90;99.90
4910;DHT22;2470;49.868;8.660;2023-04-01T07:12:54;10.80;99.90
4910;DHT22;2470;49.868;8.660;2023-04-01T07:15:25;10.80;99.90
4910;DHT22;2470;49.868;8.660;2023-04-01T07:17:58;10.90;99.90
4910;DHT22;2470;49.868;8.660;2023-04-01T07:20:32;10.90;99.90
4910;DHT22;2470;49.868;8.660;2023-04-01T07:23:00;10.90;99.90
4910;DHT22;2470;49.868;8.660;2023-04-01T07:25:38;10.90;99.90
4910;DHT22;2470;49.868;8.660;2023-04-01T07:28:15;10.90;99.90
4910;DHT22;2470;49.868;8.660;2023-04-01T07:31:04;11.00;99.90
4910;DHT22;2470;49.868;8.660;2023-04-01T07:33:42;11.10;99.90
4910;DHT22;2470;49.868;8.660;2023-04-01T07:44:54;11.20;99.90
4910;DHT22;2470;49.868;8.660;2023-04-01T07:47:58;11.20;99.90
4910;DHT22;2470;49.868;8.660;2023-04-01T07:52:59;11.40;99.90
4910;DHT22;2470;49.868;8.660;2023-04-01T07:55:33;11.50;99.90
4910;DHT22;2470;49.868;8.660;2023-04-01T07:58:57;11.50;99.90
4910;DHT22;2470;49.868;8.660;2023-04-01T08:01:39;11.40;99.90
4910;DHT22;2470;49.868;8.660;2023-04-01T08:09:25;11.50;99.90
4910;DHT22;2470;49.868;8.660;2023-04-01T08:17:42;11.50;99.90
4910;DHT22;2470;49.868;8.660;2023-04-01T08:23:15;11.50;99.90
4910;DHT22;2470;49.868;8.660;2023-04-01T08:33:36;11.40;99.90
4910;DHT22;2470;49.868;8.660;2023-04-01T08:36:12;11.40;99.90
4910;DHT22;2470;49.868;8.660;2023-04-01T08:38:53;11.30;99.90
4910;DHT22;2470;49.868;8.660;2023-04-01T08:44:14;11.20;99.90
4910;DHT22;2470;49.868;8.660;2023-04-01T08:47:24;11.20;99.90
4910;DHT22;2470;49.868;8.660;2023-04-01T08:53:12;11.20;99.90
4910;DHT22;2470;49.868;8.660;2023-04-01T08:56:35;11.10;99.90
4910;DHT22;2470;49.868;8.660;2023-04-01T08:59:05;11.10;99.90
4910;DHT22;2470;49.868;8.660;2023-04-01T09:02:23;11.10;99.90
4910;DHT22;2470;49.868;8.660;2023-04-01T09:13:27;11.20;99.90
4910;DHT22;2470;49.868;8.660;2023-04-01T09:16:32;11.20;99.90
4910;DHT22;2470;49.868;8.660;2023-04-01T09:19:21;11.30;99.90
4910;DHT22;2470;49.868;8.660;2023-04-01T09:27:56;11.30;99.90
4910;DHT22;2470;49.868;8.660;2023-04-01T09:30:33;11.40;99.90
4910;DHT22;2470;49.868;8.660;2023-04-01T09:35:50;11.50;99.90
4910;DHT22;2470;49.868;8.660;2023-04-01T09:38:31;11.50;99.90
4910;DHT22;2470;49.868;8.660;2023-04-01T09:41:19;11.50;99.90
4910;DHT22;2470;49.868;8.660;2023-04-01T10:06:44;11.40;99.90
4910;DHT22;2470;49.868;8.660;2023-04-01T10:26:18;11.30;99.90
4910;DHT22;2470;49.868;8.660;2023-04-01T10:35:07;11.50;99.90
4910;DHT22;2470;49.868;8.660;2023-04-01T10:38:18;11.60;99.90
4910;DHT22;2470;49.868;8.660;2023-04-01T10:41:03;11.60;99.90
4910;DHT22;2470;49.868;8.660;2023-04-01T10:44:25;11.50;99.90
4910;DHT22;2470;49.868;8.660;2023-04-01T10:47:23;11.60;99.90
4910;DHT22;2470;49.868;8.660;2023-04-01T10:52:57;11.80;99.90
4910;DHT22;2470;49.868;8.660;2023-04-01T11:01:05;11.80;99.90
4910;DHT22;2470;49.868;8.660;2023-04-01T11:12:11;11.90;99.90
4910;DHT22;2470;49.868;8.660;2023-04-01T11:17:52;11.90;99.90
4910;DHT22;2470;49.868;8.660;2023-04-01T11:29:24;11.90;99.90
4910;DHT22;2470;49.868;8.660;2023-04-01T11:32:20;11.90;99.90
4910;DHT22;2470;49.868;8.660;2023-04-01T11:35:28;11.90;99.90
4910;DHT22;2470;49.868;8.660;2023-04-01T11:44:01;11.90;99.90
4910;DHT22;2470;49.868;8.660;2023-04-01T11:46:40;11.90;99.90
4910;DHT22;2470;49.868;8.660;2023-04-01T11:52:17;12.00;99.90
4910;DHT22;2470;49.868;8.660;2023-04-01T12:04:00;11.80;99.90
4910;DHT22;2470;49.868;8.660;2023-04-01T12:06:44;11.70;99.90
4910;DHT22;2470;49.868;8.660;2023-04-01T12:15:23;11.70;99.90
4910;DHT22;2470;49.868;8.660;2023-04-01T12:24:23;11.90;99.90
4910;DHT22;2470;49.868;8.660;2023-04-01T12:35:26;12.10;99.90
4910;DHT22;2470;49.868;8.660;2023-04-01T12:38:24;12.20;99.90
4910;DHT22;2470;49.868;8.660;2023-04-01T12:41:09;12.30;99.90
4910;DHT22;2470;49.868;8.660;2023-04-01T12:49:52;12.60;99.90
4910;DHT22;2470;49.868;8.660;2023-04-01T12:55:18;12.60;99.90
4910;DHT22;2470;49.868;8.660;2023-04-01T13:00:53;12.50;99.90
4910;DHT22;2470;49.868;8.660;2023-04-01T13:08:57;12.20;99.90
4910;DHT22;2470;49.868;8.660;2023-04-01T13:14:24;12.10;99.90
4910;DHT22;2470;49.868;8.660;2023-04-01T13:19:49;12.00;99.90
4910;DHT22;2470;49.868;8.660;2023-04-01T13:22:58;12.00;99.90
4910;DHT22;2470;49.868;8.660;2023-04-01T13:28:45;12.00;99.90
4910;DHT22;2470;49.868;8.660;2023-04-01T13:36:57;12.00;99.90
4910;DHT22;2470;49.868;8.660;2023-04-01T13:39:42;12.00;99.90
4910;DHT22;2470;49.868;8.660;2023-04-01T13:42:15;12.10;99.90
4910;DHT22;2470;49.868;8.660;2023-04-01T13:44:49;12.10;99.90
4910;DHT22;2470;49.868;8.660;2023-04-01T13:47:54;12.20;99.90
4910;DHT22;2470;49.868;8.660;2023-04-01T13:58:20;12.70;99.90
4910;DHT22;2470;49.868;8.660;2023-04-01T14:01:23;12.80;99.90
4910;DHT22;2470;49.868;8.660;2023-04-01T14:04:23;12.90;99.90
4910;DHT22;2470;49.868;8.660;2023-04-01T14:09:44;13.10;99.90
4910;DHT22;2470;49.868;8.660;2023-04-01T14:12:30;13.20;99.90
4910;DHT22;2470;49.868;8.660;2023-04-01T14:15:17;13.10;99.90
4910;DHT22;2470;49.868;8.660;2023-04-01T14:32:24;12.60;99.90
4910;DHT22;2470;49.868;8.660;2023-04-01T14:35:02;12.60;99.90
4910;DHT22;2470;49.868;8.660;2023-04-01T14:38:02;12.70;99.90
4910;DHT22;2470;49.868;8.660;2023-04-01T14:46:05;12.50;99.90
4910;DHT22;2470;49.868;8.660;2023-04-01T14:51:18;12.50;99.90
4910;DHT22;2470;49.868;8.660;2023-04-01T14:54:00;12.40;99.90
4910;DHT22;2470;49.868;8.660;2023-04-01T14:56:43;12.40;99.90
4910;DHT22;2470;49.868;8.660;2023-04-01T14:59:25;12.30;99.90
4910;DHT22;2470;49.868;8.660;2023-04-01T15:04:54;12.20;99.90
4910;DHT22;2470;49.868;8.660;2023-04-01T15:07:45;12.30;99.90
4910;DHT22;2470;49.868;8.660;2023-04-01T15:19:14;12.20;99.90
4910;DHT22;2470;49.868;8.660;2023-04-01T15:24:52;12.10;99.90
4910;DHT22;2470;49.868;8.660;2023-04-01T15:27:40;12.10;99.90
4910;DHT22;2470;49.868;8.660;2023-04-01T15:32:40;12.10;99.90
4910;DHT22;2470;49.868;8.660;2023-04-01T15:41:14;12.20;99.90
4910;DHT22;2470;49.868;8.660;2023-04-01T15:43:42;12.10;99.90
4910;DHT22;2470;49.868;8.660;2023-04-01T16:00:11;12.30;99.90
4910;DHT22;2470;49.868;8.660;2023-04-01T16:02:46;12.20;99.90
4910;DHT22;2470;49.868;8.660;2023-04-01T16:19:09;12.20;99.90
4910;DHT22;2470;49.868;8.660;2023-04-01T16:21:54;12.20;99.90
4910;DHT22;2470;49.868;8.660;2023-04-01T16:24:38;12.10;99.90
4910;DHT22;2470;49.868;8.660;2023-04-01T16:32:57;12.10;99.90
4910;DHT22;2470;49.868;8.660;2023-04-01T16:35:53;12.10;99.90
4910;DHT22;2470;49.868;8.660;2023-04-01T16:41:14;12.00;99.90
4910;DHT22;2470;49.868;8.660;2023-04-01T16:43:48;12.00;99.90
4910;DHT22;2470;49.868;8.660;2023-04-01T16:46:27;12.00;99.90
4910;DHT22;2470;49.868;8.660;2023-04-01T17:07:17;11.90;99.90
4910;DHT22;2470;49.868;8.660;2023-04-01T17:10:51;11.90;99.90
4910;DHT22;2470;49.868;8.660;2023-04-01T17:20:48;11.80;99.90
4910;DHT22;2470;49.868;8.660;2023-04-01T17:28:58;11.90;99.90
4910;DHT22;2470;49.868;8.660;2023-04-01T17:42:08;11.80;99.90
4910;DHT22;2470;49.868;8.660;2023-04-01T17:44:41;11.80;99.90
4910;DHT22;2470;49.868;8.660;2023-04-01T17:47:38;11.80;99.90
4910;DHT22;2470;49.868;8.660;2023-04-01T17:52:45;11.80;99.90
4910;DHT22;2470;49.868;8.660;2023-04-01T17:58:02;11.80;99.90
4910;DHT22;2470;49.868;8.660;2023-04-01T18:00:50;11.80;99.90
4910;DHT22;2470;49.868;8.660;2023-04-01T18:11:24;11.70;99.90
4910;DHT22;2470;49.868;8.660;2023-04-01T18:25:37;11.60;99.90
4910;DHT22;2470;49.868;8.660;2023-04-01T18:36:20;11.50;99.90
4910;DHT22;2470;49.868;8.660;2023-04-01T18:38:56;11.50;99.90
4910;DHT22;2470;49.868;8.660;2023-04-01T18:44:29;11.50;99.90
4910;DHT22;2470;49.868;8.660;2023-04-01T18:49:58;11.50;99.90
4910;DHT22;2470;49.868;8.660;2023-04-01T18:52:35;11.40;99.90
4910;DHT22;2470;49.868;8.660;2023-04-01T18:57:45;11.40;99.90
4910;DHT22;2470;49.868;8.660;2023-04-01T19:00:18;11.40;99.90
4910;DHT22;2470;49.868;8.660;2023-04-01T19:02:58;11.40;99.90
4910;DHT22;2470;49.868;8.660;2023-04-01T19:05:36;11.40;99.90
4910;DHT22;2470;49.868;8.660;2023-04-01T19:16:05;11.40;99.90
4910;DHT22;2470;49.868;8.660;2023-04-01T19:21:28;11.30;99.90
4910;DHT22;2470;49.868;8.660;2023-04-01T19:33:46;11.30;99.90
4910;DHT22;2470;49.868;8.660;2023-04-01T19:47:46;11.30;99.90
4910;DHT22;2470;49.868;8.660;2023-04-01T19:53:31;11.30;99.90
4910;DHT22;2470;49.868;8.660;2023-04-01T19:56:14;11.30;99.90
4910;DHT22;2470;49.868;8.660;2023-04-01T19:58:54;11.20;99.90
4910;DHT22;2470;49.868;8.660;2023-04-01T20:01:27;11.20;99.90
4910;DHT22;2470;49.868;8.660;2023-04-01T20:03:56;11.20;99.90
4910;DHT22;2470;49.868;8.660;2023-04-01T20:06:38;11.20;99.90
4910;DHT22;2470;49.868;8.660;2023-04-01T20:12:00;11.20;99.90
4910;DHT22;2470;49.868;8.660;2023-04-01T20:14:28;11.20;99.90
4910;DHT22;2470;49.868;8.660;2023-04-01T20:24:58;11.20;99.90
4910;DHT22;2470;49.868;8.660;2023-04-01T20:27:35;11.20;99.90
4910;DHT22;2470;49.868;8.660;2023-04-01T20:32:57;11.20;99.90
4910;DHT22;2470;49.868;8.660;2023-04-01T20:41:24;11.10;99.90
4910;DHT22;2470;49.868;8.660;2023-04-01T20:44:04;11.10;99.90
4910;DHT22;2470;49.868;8.660;2023-04-01T20:52:08;11.20;99.90
4910;DHT22;2470;49.868;8.660;2023-04-01T21:00:28;11.20;99.90
4910;DHT22;2470;49.868;8.660;2023-04-01T21:03:07;11.10;99.90
4910;DHT22;2470;49.868;8.660;2023-04-01T21:09:02;11.10;99.90
4910;DHT22;2470;49.868;8.660;2023-04-01T21:11:46;11.20;99.90
4910;DHT22;2470;49.868;8.660;2023-04-01T21:31:15;11.10;99.90
4910;DHT22;2470;49.868;8.660;2023-04-01T21:36:49;11.10;99.90
4910;DHT22;2470;49.868;8.660;2023-04-01T21:54:27;11.00;99.90
4910;DHT22;2470;49.868;8.660;2023-04-01T21:57:11;11.00;99.90
4910;DHT22;2470;49.868;8.660;2023-04-01T22:07:31;11.00;99.90
4910;DHT22;2470;49.868;8.660;2023-04-01T22:10:26;11.00;99.90
4910;DHT22;2470;49.868;8.660;2023-04-01T22:13:20;11.10;99.90
4910;DHT22;2470;49.868;8.660;2023-04-01T22:21:21;11.00;99.90
4910;DHT22;2470;49.868;8.660;2023-04-01T22:23:58;11.00;99.90
4910;DHT22;2470;49.868;8.660;2023-04-01T22:26:38;11.00;99.90
4910;DHT22;2470;49.868;8.660;2023-04-01T22:29:17;11.00;99.90
4910;DHT22;2470;49.868;8.660;2023-04-01T22:31:53;11.00;99.90
4910;DHT22;2470;49.868;8.660;2023-04-01T22:37:02;11.00;99.90
4910;DHT22;2470;49.868;8.660;2023-04-01T22:47:48;10.90;99.90
4910;DHT22;2470;49.868;8.660;2023-04-01T22:50:19;11.00;99.90
4910;DHT22;2470;49.868;8.660;2023-04-01T22:52:47;10.90;99.90
4910;DHT22;2470;49.868;8.660;2023-04-01T22:55:20;11.00;99.90
4910;DHT22;2470;49.868;8.660;2023-04-01T22:57:55;11.00;99.90
4910;DHT22;2470;49.868;8.660;2023-04-01T23:00:39;10.90;99.90
4910;DHT22;2470;49.868;8.660;2023-04-01T23:03:13;11.00;99.90
4910;DHT22;2470;49.868;8.660;2023-04-01T23:05:46;11.00;99.90
4910;DHT22;2470;49.868;8.660;2023-04-01T23:11:08;11.00;99.90
4910;DHT22;2470;49.868;8.660;2023-04-01T23:13:43;10.90;99.90
4910;DHT22;2470;49.868;8.660;2023-04-01T23:16:10;10.90;99.90
4910;DHT22;2470;49.868;8.660;2023-04-01T23:18:46;10.90;99.90
4910;DHT22;2470;49.868;8.660;2023-04-01T23:24:14;10.80;99.90
4910;DHT22;2470;49.868;8.660;2023-04-01T23:26:49;10.70;99.90
4910;DHT22;2470;49.868;8.660;2023-04-01T23:29:17;10.70;99.90
4910;DHT22;2470;49.868;8.660;2023-04-01T23:31:49;10.70;99.90
4910;DHT22;2470;49.868;8.660;2023-04-01T23:34:30;10.60;99.90
4910;DHT22;2470;49.868;8.660;2023-04-01T23:37:01;10.60;99.90
4910;DHT22;2470;49.868;8.660;2023-04-01T23:39:40;10.60;99.90
4910;DHT22;2470;49.868;8.660;2023-04-01T23:42:31;10.60;99.90
4910;DHT22;2470;49.868;8.660;2023-04-01T23:45:17;10.60;99.90
4910;DHT22;2470;49.868;8.660;2023-04-01T23:47:46;10.60;99.90
4910;DHT22;2470;49.868;8.660;2023-04-01T23:50:18;10.60;99.90
4910;DHT22;2470;49.868;8.660;2023-04-01T23:53:01;10.60;99.90
4910;DHT22;2470;49.868;8.660;2023-04-01T23:55:31;10.60;99.90
